sensor_id;sensor_type;location;lat;lon;timestamp;pressure;altitude;pressure_sealevel;temperature;humidity
31121;BME280;17770;45.966;13.632;2023-08-17T00:00:01;100568.16;;;32.14;41.88
31121;BME280;17770;45.966;13.632;2023-08-17T00:02:31;100564.84;;;32.12;41.48
31121;BME280;17770;45.966;13.632;2023-08-17T00:04:57;100569.34;;;32.12;41.88
31121;BME280;17770;45.966;13.632;2023-08-17T00:07:23;100572.19;;;32.10;41.72
31121;BME280;17770;45.966;13.632;2023-08-17T00:09:48;100573.19;;;32.09;41.67
31121;BME280;17770;45.966;13.632;2023-08-17T00:12:14;100575.22;;;32.07;41.51
31121;BME280;17770;45.966;13.632;2023-08-17T00:14:40;100576.06;;;32.08;41.73
31121;BME280;17770;45.966;13.632;2023-08-17T00:17:06;100576.22;;;32.06;41.69
31121;BME280;17770;45.966;13.632;2023-08-17T00:19:32;100578.91;;;32.06;41.54
31121;BME280;17770;45.966;13.632;2023-08-17T00:21:58;100576.59;;;32.03;41.81
31121;BME280;17770;45.966;13.632;2023-08-17T00:24:24;100574.06;;;32.02;41.69
31121;BME280;17770;45.966;13.632;2023-08-17T00:26:50;100575.09;;;32.01;41.50
31121;BME280;17770;45.966;13.632;2023-08-17T00:29:16;100578.97;;;31.98;41.80
31121;BME280;17770;45.966;13.632;2023-08-17T00:31:42;100571.94;;;31.97;41.43
31121;BME280;17770;45.966;13.632;2023-08-17T00:34:08;100578.13;;;31.98;41.58
31121;BME280;17770;45.966;13.632;2023-08-17T00:36:34;100575.63;;;31.96;41.73
31121;BME280;17770;45.966;13.632;2023-08-17T00:39:00;100574.78;;;31.96;42.05
31121;BME280;17770;45.966;13.632;2023-08-17T00:41:26;100574.13;;;31.94;42.08
31121;BME280;17770;45.966;13.632;2023-08-17T00:43:54;100568.31;;;31.90;41.80
31121;BME280;17770;45.966;13.632;2023-08-17T00:46:20;100572.31;;;31.94;41.77
31121;BME280;17770;45.966;13.632;2023-08-17T00:48:49;100580.50;;;31.93;41.94
31121;BME280;17770;45.966;13.632;2023-08-17T00:51:15;100578.00;;;31.91;41.92
31121;BME280;17770;45.966;13.632;2023-08-17T00:53:41;100584.34;;;31.90;42.11
31121;BME280;17770;45.966;13.632;2023-08-17T00:56:07;100588.03;;;31.89;41.72
31121;BME280;17770;45.966;13.632;2023-08-17T00:58:33;100582.88;;;31.88;42.24
31121;BME280;17770;45.966;13.632;2023-08-17T01:00:59;100588.38;;;31.86;41.62
31121;BME280;17770;45.966;13.632;2023-08-17T01:03:27;100582.34;;;31.84;42.28
31121;BME280;17770;45.966;13.632;2023-08-17T01:05:53;100590.72;;;31.81;42.01
31121;BME280;17770;45.966;13.632;2023-08-17T01:08:19;100593.38;;;31.81;41.74
31121;BME280;17770;45.966;13.632;2023-08-17T01:13:31;100589.22;;;31.78;42.12
31121;BME280;17770;45.966;13.632;2023-08-17T01:16:01;100582.22;;;31.77;42.07
31121;BME280;17770;45.966;13.632;2023-08-17T01:18:29;100587.75;;;31.76;42.27
31121;BME280;17770;45.966;13.632;2023-08-17T01:20:56;100589.56;;;31.75;42.05
31121;BME280;17770;45.966;13.632;2023-08-17T01:23:22;100588.03;;;31.81;42.30
31121;BME280;17770;45.966;13.632;2023-08-17T01:25:48;100586.22;;;31.73;41.74
31121;BME280;17770;45.966;13.632;2023-08-17T01:28:14;100588.09;;;31.73;41.81
31121;BME280;17770;45.966;13.632;2023-08-17T01:30:46;100590.94;;;31.71;41.82
31121;BME280;17770;45.966;13.632;2023-08-17T01:33:14;100582.44;;;31.68;41.86
31121;BME280;17770;45.966;13.632;2023-08-17T01:38:14;100588.78;;;31.67;41.83
31121;BME280;17770;45.966;13.632;2023-08-17T01:40:44;100586.63;;;31.62;42.15
31121;BME280;17770;45.966;13.632;2023-08-17T01:43:11;100591.78;;;31.64;42.50
31121;BME280;17770;45.966;13.632;2023-08-17T01:45:37;100593.00;;;31.61;41.97
31121;BME280;17770;45.966;13.632;2023-08-17T01:48:03;100591.97;;;31.62;42.29
31121;BME280;17770;45.966;13.632;2023-08-17T01:50:30;100598.50;;;31.60;42.07
31121;BME280;17770;45.966;13.632;2023-08-17T01:52:56;100598.50;;;31.60;42.32
31121;BME280;17770;45.966;13.632;2023-08-17T01:55:22;100594.50;;;31.56;41.95
31121;BME280;17770;45.966;13.632;2023-08-17T01:57:50;100591.00;;;31.55;42.57
31121;BME280;17770;45.966;13.632;2023-08-17T02:00:16;100597.34;;;31.54;42.00
31121;BME280;17770;45.966;13.632;2023-08-17T02:02:42;100584.19;;;31.53;42.06
31121;BME280;17770;45.966;13.632;2023-08-17T02:05:08;100579.03;;;31.51;41.96
31121;BME280;17770;45.966;13.632;2023-08-17T02:07:34;100575.69;;;31.49;42.44
31121;BME280;17770;45.966;13.632;2023-08-17T02:10:00;100574.69;;;31.50;42.34
31121;BME280;17770;45.966;13.632;2023-08-17T02:12:26;100573.03;;;31.49;42.56
31121;BME280;17770;45.966;13.632;2023-08-17T02:14:52;100575.88;;;31.48;42.26
31121;BME280;17770;45.966;13.632;2023-08-17T02:17:18;100572.38;;;31.47;42.09
31121;BME280;17770;45.966;13.632;2023-08-17T02:19:45;100578.06;;;31.44;42.51
31121;BME280;17770;45.966;13.632;2023-08-17T02:22:13;100576.41;;;31.43;42.18
31121;BME280;17770;45.966;13.632;2023-08-17T02:24:39;100572.91;;;31.43;42.54
31121;BME280;17770;45.966;13.632;2023-08-17T02:27:05;100572.06;;;31.42;42.43
31121;BME280;17770;45.966;13.632;2023-08-17T02:29:31;100576.41;;;31.43;42.10
31121;BME280;17770;45.966;13.632;2023-08-17T02:31:58;100573.91;;;31.42;42.77
31121;BME280;17770;45.966;13.632;2023-08-17T02:34:26;100569.56;;;31.41;42.34
31121;BME280;17770;45.966;13.632;2023-08-17T02:36:52;100573.44;;;31.38;42.39
31121;BME280;17770;45.966;13.632;2023-08-17T02:39:19;100571.56;;;31.39;42.52
31121;BME280;17770;45.966;13.632;2023-08-17T02:41:45;100563.13;;;31.35;42.34
31121;BME280;17770;45.966;13.632;2023-08-17T02:44:10;100559.59;;;31.35;42.17
31121;BME280;17770;45.966;13.632;2023-08-17T02:46:36;100568.59;;;31.34;42.78
31121;BME280;17770;45.966;13.632;2023-08-17T02:49:02;100558.09;;;31.32;42.25
31121;BME280;17770;45.966;13.632;2023-08-17T02:51:28;100552.78;;;31.32;42.23
31121;BME280;17770;45.966;13.632;2023-08-17T02:53:54;100553.75;;;31.31;42.74
31121;BME280;17770;45.966;13.632;2023-08-17T02:56:20;100559.97;;;31.32;42.66
31121;BME280;17770;45.966;13.632;2023-08-17T02:58:47;100563.75;;;31.29;42.22
31121;BME280;17770;45.966;13.632;2023-08-17T03:01:13;100558.94;;;31.33;42.41
31121;BME280;17770;45.966;13.632;2023-08-17T03:03:38;100553.22;;;31.44;42.03
31121;BME280;17770;45.966;13.632;2023-08-17T03:06:04;100553.94;;;31.30;42.78
31121;BME280;17770;45.966;13.632;2023-08-17T03:08:31;100557.75;;;31.27;42.63
31121;BME280;17770;45.966;13.632;2023-08-17T03:10:57;100551.78;;;31.25;42.26
31121;BME280;17770;45.966;13.632;2023-08-17T03:13:23;100552.78;;;31.24;42.56
31121;BME280;17770;45.966;13.632;2023-08-17T03:15:49;100552.13;;;31.22;42.21
31121;BME280;17770;45.966;13.632;2023-08-17T03:18:15;100547.63;;;31.23;42.81
31121;BME280;17770;45.966;13.632;2023-08-17T03:20:43;100544.91;;;31.31;42.14
31121;BME280;17770;45.966;13.632;2023-08-17T03:23:09;100546.91;;;31.45;42.14
31121;BME280;17770;45.966;13.632;2023-08-17T03:25:36;100548.59;;;31.38;42.03
31121;BME280;17770;45.966;13.632;2023-08-17T03:28:03;100544.47;;;31.19;42.71
31121;BME280;17770;45.966;13.632;2023-08-17T03:30:29;100542.31;;;31.15;42.86
31121;BME280;17770;45.966;13.632;2023-08-17T03:32:56;100550.50;;;31.13;42.50
31121;BME280;17770;45.966;13.632;2023-08-17T03:35:22;100551.66;;;31.11;42.50
31121;BME280;17770;45.966;13.632;2023-08-17T03:37:48;100544.00;;;31.08;42.31
31121;BME280;17770;45.966;13.632;2023-08-17T03:40:14;100553.19;;;31.05;42.33
31121;BME280;17770;45.966;13.632;2023-08-17T03:42:40;100554.19;;;31.04;42.74
31121;BME280;17770;45.966;13.632;2023-08-17T03:45:07;100547.19;;;31.03;42.66
31121;BME280;17770;45.966;13.632;2023-08-17T03:47:33;100541.03;;;31.03;42.96
31121;BME280;17770;45.966;13.632;2023-08-17T03:50:00;100553.69;;;31.01;42.44
31121;BME280;17770;45.966;13.632;2023-08-17T03:52:26;100557.53;;;30.98;42.40
31121;BME280;17770;45.966;13.632;2023-08-17T03:54:52;100557.72;;;30.97;42.29
31121;BME280;17770;45.966;13.632;2023-08-17T03:57:18;100560.72;;;30.94;42.52
31121;BME280;17770;45.966;13.632;2023-08-17T03:59:43;100553.72;;;30.93;42.62
31121;BME280;17770;45.966;13.632;2023-08-17T04:02:09;100552.91;;;30.92;42.35
31121;BME280;17770;45.966;13.632;2023-08-17T04:04:37;100556.72;;;30.90;42.86
31121;BME280;17770;45.966;13.632;2023-08-17T04:07:02;100559.75;;;30.87;42.08
31121;BME280;17770;45.966;13.632;2023-08-17T04:09:28;100555.59;;;30.84;42.29
31121;BME280;17770;45.966;13.632;2023-08-17T04:11:54;100558.41;;;30.83;42.44
31121;BME280;17770;45.966;13.632;2023-08-17T04:14:21;100561.06;;;30.83;42.40
31121;BME280;17770;45.966;13.632;2023-08-17T04:16:47;100563.72;;;30.83;42.29
31121;BME280;17770;45.966;13.632;2023-08-17T04:19:13;100564.75;;;30.82;42.36
31121;BME280;17770;45.966;13.632;2023-08-17T04:21:40;100557.94;;;30.79;42.41
31121;BME280;17770;45.966;13.632;2023-08-17T04:24:06;100559.75;;;30.79;42.54
31121;BME280;17770;45.966;13.632;2023-08-17T04:26:32;100557.09;;;30.79;42.53
31121;BME280;17770;45.966;13.632;2023-08-17T04:28:58;100558.91;;;30.78;42.38
31121;BME280;17770;45.966;13.632;2023-08-17T04:31:24;100562.75;;;30.76;43.02
31121;BME280;17770;45.966;13.632;2023-08-17T04:33:57;100568.88;;;30.76;43.05
31121;BME280;17770;45.966;13.632;2023-08-17T04:36:23;100562.06;;;30.74;42.45
31121;BME280;17770;45.966;13.632;2023-08-17T04:38:49;100565.72;;;30.73;43.06
31121;BME280;17770;45.966;13.632;2023-08-17T04:41:14;100572.06;;;30.72;42.63
31121;BME280;17770;45.966;13.632;2023-08-17T04:43:40;100579.22;;;30.71;43.10
31121;BME280;17770;45.966;13.632;2023-08-17T04:46:08;100573.88;;;30.71;42.69
31121;BME280;17770;45.966;13.632;2023-08-17T04:48:35;100568.09;;;30.68;43.15
31121;BME280;17770;45.966;13.632;2023-08-17T04:51:01;100569.91;;;30.67;43.09
31121;BME280;17770;45.966;13.632;2023-08-17T04:53:28;100575.06;;;30.69;42.55
31121;BME280;17770;45.966;13.632;2023-08-17T04:55:54;100581.41;;;30.68;42.76
31121;BME280;17770;45.966;13.632;2023-08-17T04:58:20;100591.22;;;30.67;43.04
31121;BME280;17770;45.966;13.632;2023-08-17T05:00:46;100591.38;;;30.66;43.28
31121;BME280;17770;45.966;13.632;2023-08-17T05:03:12;100585.56;;;30.62;43.17
31121;BME280;17770;45.966;13.632;2023-08-17T05:05:41;100592.53;;;30.63;42.70
31121;BME280;17770;45.966;13.632;2023-08-17T05:08:09;100598.03;;;30.61;43.17
31121;BME280;17770;45.966;13.632;2023-08-17T05:10:36;100597.38;;;30.59;43.37
31121;BME280;17770;45.966;13.632;2023-08-17T05:13:02;100600.69;;;30.61;42.94
31121;BME280;17770;45.966;13.632;2023-08-17T05:15:28;100603.53;;;30.60;43.44
31121;BME280;17770;45.966;13.632;2023-08-17T05:17:55;100595.53;;;30.60;43.23
31121;BME280;17770;45.966;13.632;2023-08-17T05:20:22;100598.22;;;30.60;43.17
31121;BME280;17770;45.966;13.632;2023-08-17T05:22:48;100598.38;;;30.58;42.82
31121;BME280;17770;45.966;13.632;2023-08-17T05:25:14;100600.19;;;30.58;43.35
31121;BME280;17770;45.966;13.632;2023-08-17T05:27:41;100605.69;;;30.56;43.33
31121;BME280;17770;45.966;13.632;2023-08-17T05:30:07;100600.53;;;30.55;42.76
31121;BME280;17770;45.966;13.632;2023-08-17T05:32:33;100598.72;;;30.55;43.19
31121;BME280;17770;45.966;13.632;2023-08-17T05:34:59;100596.22;;;30.54;42.63
31121;BME280;17770;45.966;13.632;2023-08-17T05:37:25;100603.53;;;30.52;42.83
31121;BME280;17770;45.966;13.632;2023-08-17T05:39:51;100608.03;;;30.51;42.73
31121;BME280;17770;45.966;13.632;2023-08-17T05:42:17;100600.56;;;30.47;43.18
31121;BME280;17770;45.966;13.632;2023-08-17T05:44:42;100612.22;;;30.46;43.41
31121;BME280;17770;45.966;13.632;2023-08-17T05:47:08;100613.19;;;30.45;42.76
31121;BME280;17770;45.966;13.632;2023-08-17T05:49:34;100606.22;;;30.44;42.82
31121;BME280;17770;45.966;13.632;2023-08-17T05:52:00;100615.84;;;30.45;42.76
31121;BME280;17770;45.966;13.632;2023-08-17T05:54:26;100607.38;;;30.41;42.97
31121;BME280;17770;45.966;13.632;2023-08-17T05:56:52;100605.53;;;30.42;43.01
31121;BME280;17770;45.966;13.632;2023-08-17T05:59:18;100606.56;;;30.41;43.14
31121;BME280;17770;45.966;13.632;2023-08-17T06:01:44;100609.22;;;30.41;42.98
31121;BME280;17770;45.966;13.632;2023-08-17T06:04:10;100612.03;;;30.39;43.08
31121;BME280;17770;45.966;13.632;2023-08-17T06:06:36;100608.72;;;30.37;43.16
31121;BME280;17770;45.966;13.632;2023-08-17T06:09:01;100608.53;;;30.39;43.41
31121;BME280;17770;45.966;13.632;2023-08-17T06:11:27;100605.22;;;30.37;43.78
31121;BME280;17770;45.966;13.632;2023-08-17T06:13:53;100601.69;;;30.36;43.77
31121;BME280;17770;45.966;13.632;2023-08-17T06:16:19;100605.03;;;30.38;43.13
31121;BME280;17770;45.966;13.632;2023-08-17T06:18:45;100601.53;;;30.38;43.41
31121;BME280;17770;45.966;13.632;2023-08-17T06:21:11;100596.38;;;30.36;43.35
31121;BME280;17770;45.966;13.632;2023-08-17T06:23:37;100601.88;;;30.27;44.33
31121;BME280;17770;45.966;13.632;2023-08-17T06:26:03;100603.63;;;29.94;46.58
31121;BME280;17770;45.966;13.632;2023-08-17T06:28:29;100604.38;;;29.71;47.36
31121;BME280;17770;45.966;13.632;2023-08-17T06:30:55;100609.56;;;29.38;47.78
31121;BME280;17770;45.966;13.632;2023-08-17T06:33:21;100604.63;;;29.18;48.19
31121;BME280;17770;45.966;13.632;2023-08-17T06:35:47;100605.13;;;28.96;49.17
31121;BME280;17770;45.966;13.632;2023-08-17T06:38:13;100609.38;;;28.81;49.09
31121;BME280;17770;45.966;13.632;2023-08-17T06:40:39;100603.38;;;28.79;49.41
31121;BME280;17770;45.966;13.632;2023-08-17T06:43:04;100597.44;;;28.85;49.06
31121;BME280;17770;45.966;13.632;2023-08-17T06:45:34;100605.34;;;28.77;49.56
31121;BME280;17770;45.966;13.632;2023-08-17T06:48:01;100600.25;;;28.83;49.56
31121;BME280;17770;45.966;13.632;2023-08-17T06:50:26;100600.19;;;28.75;49.96
31121;BME280;17770;45.966;13.632;2023-08-17T06:52:54;100598.75;;;28.81;49.74
31121;BME280;17770;45.966;13.632;2023-08-17T06:55:20;100603.97;;;28.73;49.61
31121;BME280;17770;45.966;13.632;2023-08-17T06:57:46;100611.34;;;28.79;49.67
31121;BME280;17770;45.966;13.632;2023-08-17T07:00:12;100598.84;;;28.97;49.02
31121;BME280;17770;45.966;13.632;2023-08-17T07:02:38;100598.72;;;29.06;48.93
31121;BME280;17770;45.966;13.632;2023-08-17T07:05:04;100597.06;;;29.05;48.59
31121;BME280;17770;45.966;13.632;2023-08-17T07:07:30;100601.81;;;29.19;48.47
31121;BME280;17770;45.966;13.632;2023-08-17T07:09:59;100603.16;;;29.15;49.02
31121;BME280;17770;45.966;13.632;2023-08-17T07:12:25;100601.63;;;29.13;48.79
31121;BME280;17770;45.966;13.632;2023-08-17T07:14:51;100602.09;;;29.08;49.25
31121;BME280;17770;45.966;13.632;2023-08-17T07:17:17;100602.22;;;29.07;49.00
31121;BME280;17770;45.966;13.632;2023-08-17T07:19:42;100613.91;;;29.14;48.63
31121;BME280;17770;45.966;13.632;2023-08-17T07:22:08;100611.94;;;29.16;48.69
31121;BME280;17770;45.966;13.632;2023-08-17T07:24:34;100607.66;;;29.23;48.77
31121;BME280;17770;45.966;13.632;2023-08-17T07:27:00;100608.19;;;29.26;48.81
31121;BME280;17770;45.966;13.632;2023-08-17T07:29:26;100612.66;;;29.26;48.31
31121;BME280;17770;45.966;13.632;2023-08-17T07:31:52;100613.53;;;29.34;48.40
31121;BME280;17770;45.966;13.632;2023-08-17T07:34:19;100612.72;;;29.42;48.30
31121;BME280;17770;45.966;13.632;2023-08-17T07:36:46;100609.97;;;29.60;47.95
31121;BME280;17770;45.966;13.632;2023-08-17T07:39:11;100606.13;;;29.54;47.88
31121;BME280;17770;45.966;13.632;2023-08-17T07:41:38;100607.56;;;29.40;48.25
31121;BME280;17770;45.966;13.632;2023-08-17T07:44:04;100603.25;;;29.39;48.35
31121;BME280;17770;45.966;13.632;2023-08-17T07:46:30;100601.72;;;29.37;48.09
31121;BME280;17770;45.966;13.632;2023-08-17T07:48:56;100602.94;;;29.51;47.67
31121;BME280;17770;45.966;13.632;2023-08-17T07:51:22;100609.66;;;29.63;47.55
31121;BME280;17770;45.966;13.632;2023-08-17T07:53:48;100608.38;;;29.67;47.36
31121;BME280;17770;45.966;13.632;2023-08-17T07:56:13;100616.91;;;29.86;47.34
31121;BME280;17770;45.966;13.632;2023-08-17T07:58:39;100618.13;;;30.00;47.44
31121;BME280;17770;45.966;13.632;2023-08-17T08:01:05;100615.59;;;29.98;47.33
31121;BME280;17770;45.966;13.632;2023-08-17T08:03:31;100613.06;;;29.81;48.58
31121;BME280;17770;45.966;13.632;2023-08-17T08:05:57;100608.44;;;29.91;48.93
31121;BME280;17770;45.966;13.632;2023-08-17T08:08:23;100611.13;;;29.99;48.22
31121;BME280;17770;45.966;13.632;2023-08-17T08:10:49;100615.13;;;30.03;47.79
31121;BME280;17770;45.966;13.632;2023-08-17T08:13:15;100616.44;;;30.15;47.26
31121;BME280;17770;45.966;13.632;2023-08-17T08:15:41;100609.66;;;30.20;47.41
31121;BME280;17770;45.966;13.632;2023-08-17T08:18:06;100608.53;;;30.31;46.59
31121;BME280;17770;45.966;13.632;2023-08-17T08:20:32;100610.03;;;30.33;46.92
31121;BME280;17770;45.966;13.632;2023-08-17T08:22:58;100605.22;;;30.37;47.01
31121;BME280;17770;45.966;13.632;2023-08-17T08:25:24;100605.72;;;30.40;46.37
31121;BME280;17770;45.966;13.632;2023-08-17T08:27:50;100610.03;;;30.49;45.67
31121;BME280;17770;45.966;13.632;2023-08-17T08:30:15;100604.88;;;30.56;45.92
31121;BME280;17770;45.966;13.632;2023-08-17T08:32:43;100594.88;;;30.50;46.21
31121;BME280;17770;45.966;13.632;2023-08-17T08:35:09;100600.03;;;30.43;46.56
31121;BME280;17770;45.966;13.632;2023-08-17T08:37:35;100594.38;;;30.38;46.19
31121;BME280;17770;45.966;13.632;2023-08-17T08:40:01;100598.38;;;30.50;45.64
31121;BME280;17770;45.966;13.632;2023-08-17T08:42:27;100595.72;;;30.58;45.58
31121;BME280;17770;45.966;13.632;2023-08-17T08:44:53;100597.69;;;30.64;45.02
31121;BME280;17770;45.966;13.632;2023-08-17T08:47:19;100593.06;;;30.58;45.00
31121;BME280;17770;45.966;13.632;2023-08-17T08:49:50;100594.53;;;30.53;45.40
31121;BME280;17770;45.966;13.632;2023-08-17T08:52:19;100599.53;;;30.48;45.54
31121;BME280;17770;45.966;13.632;2023-08-17T08:54:49;100604.22;;;30.46;45.60
31121;BME280;17770;45.966;13.632;2023-08-17T08:57:15;100588.88;;;30.48;45.66
31121;BME280;17770;45.966;13.632;2023-08-17T08:59:41;100589.91;;;30.47;45.54
31121;BME280;17770;45.966;13.632;2023-08-17T09:02:12;100591.72;;;30.46;45.14
31121;BME280;17770;45.966;13.632;2023-08-17T09:04:39;100593.06;;;30.50;44.74
31121;BME280;17770;45.966;13.632;2023-08-17T09:07:06;100587.91;;;30.41;44.89
31121;BME280;17770;45.966;13.632;2023-08-17T09:09:32;100589.75;;;30.24;45.61
31121;BME280;17770;45.966;13.632;2023-08-17T09:11:59;100584.25;;;30.26;45.61
31121;BME280;17770;45.966;13.632;2023-08-17T09:14:25;100590.41;;;30.42;45.21
31121;BME280;17770;45.966;13.632;2023-08-17T09:16:51;100594.38;;;30.46;44.95
31121;BME280;17770;45.966;13.632;2023-08-17T09:19:17;100593.22;;;30.65;44.68
31121;BME280;17770;45.966;13.632;2023-08-17T09:21:44;100590.22;;;30.68;44.69
31121;BME280;17770;45.966;13.632;2023-08-17T09:24:10;100580.72;;;30.66;44.87
31121;BME280;17770;45.966;13.632;2023-08-17T09:26:37;100576.06;;;30.59;45.32
31121;BME280;17770;45.966;13.632;2023-08-17T09:29:15;100579.41;;;30.61;45.68
31121;BME280;17770;45.966;13.632;2023-08-17T09:31:41;100575.56;;;30.48;45.02
31121;BME280;17770;45.966;13.632;2023-08-17T09:34:07;100568.94;;;30.52;44.80
31121;BME280;17770;45.966;13.632;2023-08-17T09:36:34;100571.94;;;30.49;44.89
31121;BME280;17770;45.966;13.632;2023-08-17T09:39:00;100571.91;;;30.57;44.41
31121;BME280;17770;45.966;13.632;2023-08-17T09:41:27;100569.75;;;30.69;44.45
31121;BME280;17770;45.966;13.632;2023-08-17T09:43:54;100570.25;;;30.72;43.81
31121;BME280;17770;45.966;13.632;2023-08-17T09:46:20;100562.94;;;30.82;42.93
31121;BME280;17770;45.966;13.632;2023-08-17T09:48:47;100566.88;;;30.94;43.52
31121;BME280;17770;45.966;13.632;2023-08-17T09:51:16;100567.88;;;30.93;43.69
31121;BME280;17770;45.966;13.632;2023-08-17T09:53:42;100565.97;;;31.18;42.37
31121;BME280;17770;45.966;13.632;2023-08-17T09:56:08;100565.59;;;31.37;42.10
31121;BME280;17770;45.966;13.632;2023-08-17T09:58:39;100565.91;;;31.42;42.05
31121;BME280;17770;45.966;13.632;2023-08-17T10:01:05;100566.41;;;31.37;42.36
31121;BME280;17770;45.966;13.632;2023-08-17T10:03:32;100567.56;;;31.43;41.74
31121;BME280;17770;45.966;13.632;2023-08-17T10:06:04;100554.19;;;31.51;42.10
31121;BME280;17770;45.966;13.632;2023-08-17T10:08:31;100557.56;;;31.45;42.18
31121;BME280;17770;45.966;13.632;2023-08-17T10:10:59;100547.44;;;31.32;41.93
31121;BME280;17770;45.966;13.632;2023-08-17T10:13:30;100553.47;;;31.18;41.86
31121;BME280;17770;45.966;13.632;2023-08-17T10:15:59;100548.63;;;31.22;42.21
31121;BME280;17770;45.966;13.632;2023-08-17T10:18:45;100547.88;;;31.44;41.46
31121;BME280;17770;45.966;13.632;2023-08-17T10:21:17;100554.31;;;31.57;41.18
31121;BME280;17770;45.966;13.632;2023-08-17T10:23:47;100546.56;;;31.70;40.04
31121;BME280;17770;45.966;13.632;2023-08-17T10:26:13;100545.03;;;31.76;41.13
31121;BME280;17770;45.966;13.632;2023-08-17T10:28:39;100542.19;;;31.77;40.30
31121;BME280;17770;45.966;13.632;2023-08-17T10:31:05;100545.22;;;31.74;39.87
31121;BME280;17770;45.966;13.632;2023-08-17T10:33:32;100542.56;;;31.74;40.49
31121;BME280;17770;45.966;13.632;2023-08-17T10:35:59;100541.81;;;31.89;40.34
31121;BME280;17770;45.966;13.632;2023-08-17T10:38:25;100537.44;;;31.96;40.45
31121;BME280;17770;45.966;13.632;2023-08-17T10:41:08;100528.25;;;31.98;40.81
31121;BME280;17770;45.966;13.632;2023-08-17T10:43:34;100531.25;;;31.95;41.15
31121;BME280;17770;45.966;13.632;2023-08-17T10:46:15;100542.59;;;31.97;40.01
31121;BME280;17770;45.966;13.632;2023-08-17T10:48:44;100534.28;;;31.92;40.23
31121;BME280;17770;45.966;13.632;2023-08-17T10:51:10;100531.66;;;32.07;40.55
31121;BME280;17770;45.966;13.632;2023-08-17T10:53:40;100533.44;;;32.14;40.11
31121;BME280;17770;45.966;13.632;2023-08-17T10:56:11;100529.97;;;31.91;40.54
31121;BME280;17770;45.966;13.632;2023-08-17T10:58:38;100528.19;;;32.06;41.30
31121;BME280;17770;45.966;13.632;2023-08-17T11:01:04;100529.41;;;31.96;40.71
31121;BME280;17770;45.966;13.632;2023-08-17T11:03:30;100529.78;;;31.93;40.68
31121;BME280;17770;45.966;13.632;2023-08-17T11:05:56;100524.75;;;31.98;41.05
31121;BME280;17770;45.966;13.632;2023-08-17T11:11:25;100525.28;;;31.85;40.03
31121;BME280;17770;45.966;13.632;2023-08-17T11:13:44;100520.00;;;31.77;41.84
31121;BME280;17770;45.966;13.632;2023-08-17T11:16:11;100521.63;;;32.09;40.48
31121;BME280;17770;45.966;13.632;2023-08-17T11:18:37;100521.84;;;32.22;40.58
31121;BME280;17770;45.966;13.632;2023-08-17T11:21:03;100509.22;;;32.38;40.48
31121;BME280;17770;45.966;13.632;2023-08-17T11:23:30;100511.47;;;32.27;40.64
31121;BME280;17770;45.966;13.632;2023-08-17T11:25:56;100512.97;;;32.29;41.26
31121;BME280;17770;45.966;13.632;2023-08-17T11:28:22;100516.91;;;32.33;40.80
31121;BME280;17770;45.966;13.632;2023-08-17T11:33:27;100510.91;;;32.39;40.46
31121;BME280;17770;45.966;13.632;2023-08-17T11:35:54;100500.50;;;32.44;40.62
31121;BME280;17770;45.966;13.632;2023-08-17T11:38:20;100506.41;;;32.54;40.31
31121;BME280;17770;45.966;13.632;2023-08-17T11:40:45;100505.38;;;32.55;40.72
31121;BME280;17770;45.966;13.632;2023-08-17T11:43:11;100507.31;;;32.47;40.45
31121;BME280;17770;45.966;13.632;2023-08-17T11:45:37;100500.31;;;32.46;40.80
31121;BME280;17770;45.966;13.632;2023-08-17T11:48:03;100512.59;;;32.32;40.91
31121;BME280;17770;45.966;13.632;2023-08-17T11:50:29;100505.88;;;32.36;40.82
31121;BME280;17770;45.966;13.632;2023-08-17T11:52:56;100503.00;;;32.46;40.77
31121;BME280;17770;45.966;13.632;2023-08-17T11:55:24;100498.41;;;32.54;40.63
31121;BME280;17770;45.966;13.632;2023-08-17T11:57:50;100504.19;;;32.58;40.51
31121;BME280;17770;45.966;13.632;2023-08-17T12:00:17;100490.66;;;32.74;40.90
31121;BME280;17770;45.966;13.632;2023-08-17T12:02:43;100494.31;;;32.58;40.29
31121;BME280;17770;45.966;13.632;2023-08-17T12:05:09;100490.38;;;32.32;39.02
31121;BME280;17770;45.966;13.632;2023-08-17T12:07:35;100479.88;;;32.30;40.46
31121;BME280;17770;45.966;13.632;2023-08-17T12:10:04;100482.50;;;32.38;39.07
31121;BME280;17770;45.966;13.632;2023-08-17T12:12:30;100478.94;;;32.46;40.69
31121;BME280;17770;45.966;13.632;2023-08-17T12:14:57;100484.75;;;32.64;41.29
31121;BME280;17770;45.966;13.632;2023-08-17T12:17:23;100467.44;;;32.89;40.12
31121;BME280;17770;45.966;13.632;2023-08-17T12:19:49;100473.16;;;33.00;39.73
31121;BME280;17770;45.966;13.632;2023-08-17T12:22:16;100464.31;;;33.00;39.71
31121;BME280;17770;45.966;13.632;2023-08-17T12:24:42;100457.19;;;33.07;39.57
31121;BME280;17770;45.966;13.632;2023-08-17T12:27:09;100462.81;;;33.12;39.58
31121;BME280;17770;45.966;13.632;2023-08-17T12:29:48;100458.81;;;33.23;39.90
31121;BME280;17770;45.966;13.632;2023-08-17T12:32:15;100456.69;;;33.18;39.34
31121;BME280;17770;45.966;13.632;2023-08-17T12:34:41;100452.19;;;33.19;39.70
31121;BME280;17770;45.966;13.632;2023-08-17T12:37:08;100455.63;;;32.98;39.33
31121;BME280;17770;45.966;13.632;2023-08-17T12:39:35;100449.28;;;32.99;40.54
31121;BME280;17770;45.966;13.632;2023-08-17T12:42:01;100450.63;;;33.10;40.61
31121;BME280;17770;45.966;13.632;2023-08-17T12:44:27;100440.72;;;33.25;39.64
31121;BME280;17770;45.966;13.632;2023-08-17T12:46:53;100437.88;;;33.26;40.45